sensor_id;sensor_type;location;lat;lon;timestamp;temperature;humidity
65074;DHT22;52218;51.224;-2.328;2022-12-08T00:00:42;-2.40;99.90
65074;DHT22;52218;51.224;-2.328;2022-12-08T00:04:24;-2.50;99.90
65074;DHT22;52218;51.224;-2.328;2022-12-08T00:08:08;-2.50;99.90
65074;DHT22;52218;51.224;-2.328;2022-12-08T00:12:12;-2.50;99.90
65074;DHT22;52218;51.224;-2.328;2022-12-08T00:15:59;-2.50;99.90
65074;DHT22;52218;51.224;-2.328;2022-12-08T00:19:42;-2.50;99.90
65074;DHT22;52218;51.224;-2.328;2022-12-08T00:23:25;-2.50;99.90
65074;DHT22;52218;51.224;-2.328;2022-12-08T00:27:09;-2.50;99.90
65074;DHT22;52218;51.224;-2.328;2022-12-08T00:30:52;-2.60;99.90
65074;DHT22;52218;51.224;-2.328;2022-12-08T00:34:34;-2.60;99.90
65074;DHT22;52218;51.224;-2.328;2022-12-08T00:38:16;-2.60;99.90
65074;DHT22;52218;51.224;-2.328;2022-12-08T00:41:58;-2.60;99.90
65074;DHT22;52218;51.224;-2.328;2022-12-08T00:45:55;-2.60;99.90
65074;DHT22;52218;51.224;-2.328;2022-12-08T00:49:37;-2.70;99.90
65074;DHT22;52218;51.224;-2.328;2022-12-08T00:53:19;-2.70;99.90
65074;DHT22;52218;51.224;-2.328;2022-12-08T00:57:01;-2.70;99.90
65074;DHT22;52218;51.224;-2.328;2022-12-08T01:00:43;-2.70;99.90
65074;DHT22;52218;51.224;-2.328;2022-12-08T01:04:26;-2.80;99.90
65074;DHT22;52218;51.224;-2.328;2022-12-08T01:08:08;-2.80;99.90
65074;DHT22;52218;51.224;-2.328;2022-12-08T01:11:50;-2.80;99.90
65074;DHT22;52218;51.224;-2.328;2022-12-08T01:15:32;-2.80;99.90
65074;DHT22;52218;51.224;-2.328;2022-12-08T01:19:15;-2.90;99.90
65074;DHT22;52218;51.224;-2.328;2022-12-08T01:23:00;-2.90;99.90
65074;DHT22;52218;51.224;-2.328;2022-12-08T01:26:43;-2.90;99.90
65074;DHT22;52218;51.224;-2.328;2022-12-08T01:30:25;-2.90;99.90
65074;DHT22;52218;51.224;-2.328;2022-12-08T01:34:09;-3.00;99.90
65074;DHT22;52218;51.224;-2.328;2022-12-08T01:37:51;-3.00;99.90
65074;DHT22;52218;51.224;-2.328;2022-12-08T01:41:34;-3.00;99.90
65074;DHT22;52218;51.224;-2.328;2022-12-08T01:45:27;-3.10;99.90
65074;DHT22;52218;51.224;-2.328;2022-12-08T01:53:12;-3.10;99.90
65074;DHT22;52218;51.224;-2.328;2022-12-08T01:57:02;-3.10;99.90
65074;DHT22;52218;51.224;-2.328;2022-12-08T02:00:48;-3.10;99.90
65074;DHT22;52218;51.224;-2.328;2022-12-08T02:04:30;-3.10;99.90
65074;DHT22;52218;51.224;-2.328;2022-12-08T02:08:12;-3.10;99.90
65074;DHT22;52218;51.224;-2.328;2022-12-08T02:11:56;-3.20;99.90
65074;DHT22;52218;51.224;-2.328;2022-12-08T02:31:30;-3.30;99.90
65074;DHT22;52218;51.224;-2.328;2022-12-08T02:47:14;-3.40;99.90
65074;DHT22;52218;51.224;-2.328;2022-12-08T02:50:58;-3.40;99.90
65074;DHT22;52218;51.224;-2.328;2022-12-08T02:54:43;-3.40;99.90
65074;DHT22;52218;51.224;-2.328;2022-12-08T03:06:49;-3.50;99.90
65074;DHT22;52218;51.224;-2.328;2022-12-08T03:10:57;-3.50;99.90
65074;DHT22;52218;51.224;-2.328;2022-12-08T03:14:43;-3.50;99.90
65074;DHT22;52218;51.224;-2.328;2022-12-08T03:18:28;-3.60;99.90
65074;DHT22;52218;51.224;-2.328;2022-12-08T03:22:13;-3.60;99.90
65074;DHT22;52218;51.224;-2.328;2022-12-08T03:26:06;-3.60;99.90
65074;DHT22;52218;51.224;-2.328;2022-12-08T03:29:52;-3.60;99.90
65074;DHT22;52218;51.224;-2.328;2022-12-08T03:33:37;-3.70;99.90
65074;DHT22;52218;51.224;-2.328;2022-12-08T03:37:20;-3.70;99.90
65074;DHT22;52218;51.224;-2.328;2022-12-08T03:41:02;-3.70;99.90
65074;DHT22;52218;51.224;-2.328;2022-12-08T03:44:59;-3.80;99.90
65074;DHT22;52218;51.224;-2.328;2022-12-08T03:48:42;-3.80;99.90
65074;DHT22;52218;51.224;-2.328;2022-12-08T03:52:24;-3.80;99.90
65074;DHT22;52218;51.224;-2.328;2022-12-08T03:56:18;-3.80;99.90
65074;DHT22;52218;51.224;-2.328;2022-12-08T04:00:04;-3.80;99.90
65074;DHT22;52218;51.224;-2.328;2022-12-08T04:03:47;-3.80;99.90
65074;DHT22;52218;51.224;-2.328;2022-12-08T04:07:29;-3.80;99.90
65074;DHT22;52218;51.224;-2.328;2022-12-08T04:11:11;-3.90;99.90
65074;DHT22;52218;51.224;-2.328;2022-12-08T04:14:53;-3.90;99.90
65074;DHT22;52218;51.224;-2.328;2022-12-08T04:18:35;-3.90;99.90
65074;DHT22;52218;51.224;-2.328;2022-12-08T04:22:17;-4.00;99.90
65074;DHT22;52218;51.224;-2.328;2022-12-08T04:25:59;-4.00;99.90
65074;DHT22;52218;51.224;-2.328;2022-12-08T04:29:41;-4.00;99.90
65074;DHT22;52218;51.224;-2.328;2022-12-08T04:33:23;-4.00;99.90
65074;DHT22;52218;51.224;-2.328;2022-12-08T04:37:06;-4.10;99.90
65074;DHT22;52218;51.224;-2.328;2022-12-08T04:40:48;-4.10;99.90
65074;DHT22;52218;51.224;-2.328;2022-12-08T04:44:30;-4.10;99.90
65074;DHT22;52218;51.224;-2.328;2022-12-08T04:48:12;-4.10;99.90
65074;DHT22;52218;51.224;-2.328;2022-12-08T04:51:54;-4.10;99.90
65074;DHT22;52218;51.224;-2.328;2022-12-08T04:55:43;-4.00;99.90
65074;DHT22;52218;51.224;-2.328;2022-12-08T04:59:25;-4.00;99.90
65074;DHT22;52218;51.224;-2.328;2022-12-08T05:03:07;-3.90;99.90
65074;DHT22;52218;51.224;-2.328;2022-12-08T05:06:50;-3.80;99.90
65074;DHT22;52218;51.224;-2.328;2022-12-08T05:10:32;-3.80;99.90
65074;DHT22;52218;51.224;-2.328;2022-12-08T05:14:15;-3.80;99.90
65074;DHT22;52218;51.224;-2.328;2022-12-08T05:17:58;-3.90;99.90
65074;DHT22;52218;51.224;-2.328;2022-12-08T05:21:40;-3.90;99.90
65074;DHT22;52218;51.224;-2.328;2022-12-08T05:25:22;-4.00;99.90
65074;DHT22;52218;51.224;-2.328;2022-12-08T05:29:04;-4.00;99.90
65074;DHT22;52218;51.224;-2.328;2022-12-08T05:32:46;-4.00;99.90
65074;DHT22;52218;51.224;-2.328;2022-12-08T05:36:28;-4.10;99.90
65074;DHT22;52218;51.224;-2.328;2022-12-08T05:40:11;-4.10;99.90
65074;DHT22;52218;51.224;-2.328;2022-12-08T05:43:53;-4.10;99.90
65074;DHT22;52218;51.224;-2.328;2022-12-08T05:47:35;-4.20;99.90
65074;DHT22;52218;51.224;-2.328;2022-12-08T05:51:19;-4.20;99.90
65074;DHT22;52218;51.224;-2.328;2022-12-08T05:55:02;-4.20;99.90
65074;DHT22;52218;51.224;-2.328;2022-12-08T05:58:44;-4.20;99.90
65074;DHT22;52218;51.224;-2.328;2022-12-08T06:02:26;-4.20;99.90
65074;DHT22;52218;51.224;-2.328;2022-12-08T06:06:09;-4.20;99.90
65074;DHT22;52218;51.224;-2.328;2022-12-08T06:09:51;-4.30;99.90
65074;DHT22;52218;51.224;-2.328;2022-12-08T06:13:33;-4.20;99.90
65074;DHT22;52218;51.224;-2.328;2022-12-08T06:17:15;-4.20;99.90
65074;DHT22;52218;51.224;-2.328;2022-12-08T06:21:04;-4.20;99.90
65074;DHT22;52218;51.224;-2.328;2022-12-08T06:24:46;-4.20;99.90
65074;DHT22;52218;51.224;-2.328;2022-12-08T06:28:29;-4.20;99.90
65074;DHT22;52218;51.224;-2.328;2022-12-08T06:32:12;-4.20;99.90
65074;DHT22;52218;51.224;-2.328;2022-12-08T06:35:54;-4.20;99.90
65074;DHT22;52218;51.224;-2.328;2022-12-08T06:39:36;-4.20;99.90
65074;DHT22;52218;51.224;-2.328;2022-12-08T06:43:18;-4.20;99.90
65074;DHT22;52218;51.224;-2.328;2022-12-08T06:47:00;-4.20;99.90
65074;DHT22;52218;51.224;-2.328;2022-12-08T06:50:42;-4.20;99.90
65074;DHT22;52218;51.224;-2.328;2022-12-08T06:54:24;-4.20;99.90
65074;DHT22;52218;51.224;-2.328;2022-12-08T06:58:06;-4.20;99.90
65074;DHT22;52218;51.224;-2.328;2022-12-08T07:01:48;-4.20;99.90
65074;DHT22;52218;51.224;-2.328;2022-12-08T07:05:30;-4.20;99.90
65074;DHT22;52218;51.224;-2.328;2022-12-08T07:09:12;-4.20;99.90
65074;DHT22;52218;51.224;-2.328;2022-12-08T07:12:54;-4.20;99.90
65074;DHT22;52218;51.224;-2.328;2022-12-08T07:16:36;-4.20;99.90
65074;DHT22;52218;51.224;-2.328;2022-12-08T07:20:20;-4.20;99.90
65074;DHT22;52218;51.224;-2.328;2022-12-08T07:24:02;-4.20;99.90
65074;DHT22;52218;51.224;-2.328;2022-12-08T07:27:44;-4.20;99.90
65074;DHT22;52218;51.224;-2.328;2022-12-08T07:31:26;-4.20;99.90
65074;DHT22;52218;51.224;-2.328;2022-12-08T07:35:09;-4.10;99.90
65074;DHT22;52218;51.224;-2.328;2022-12-08T07:38:52;-4.20;99.90
65074;DHT22;52218;51.224;-2.328;2022-12-08T07:42:35;-4.20;99.90
65074;DHT22;52218;51.224;-2.328;2022-12-08T07:46:20;-4.20;99.90
65074;DHT22;52218;51.224;-2.328;2022-12-08T07:50:03;-4.20;99.90
65074;DHT22;52218;51.224;-2.328;2022-12-08T07:53:48;-4.20;99.90
65074;DHT22;52218;51.224;-2.328;2022-12-08T07:57:35;-4.20;99.90
65074;DHT22;52218;51.224;-2.328;2022-12-08T08:01:35;-4.20;99.90
65074;DHT22;52218;51.224;-2.328;2022-12-08T08:05:17;-4.20;99.90
65074;DHT22;52218;51.224;-2.328;2022-12-08T08:09:00;-4.20;99.90
65074;DHT22;52218;51.224;-2.328;2022-12-08T08:12:42;-4.20;99.90
65074;DHT22;52218;51.224;-2.328;2022-12-08T08:16:24;-4.20;99.90
65074;DHT22;52218;51.224;-2.328;2022-12-08T08:20:07;-4.20;99.90
65074;DHT22;52218;51.224;-2.328;2022-12-08T08:23:49;-4.10;99.90
65074;DHT22;52218;51.224;-2.328;2022-12-08T08:27:31;-4.10;99.90
65074;DHT22;52218;51.224;-2.328;2022-12-08T08:31:14;-4.10;99.90
65074;DHT22;52218;51.224;-2.328;2022-12-08T08:34:56;-4.10;99.90
65074;DHT22;52218;51.224;-2.328;2022-12-08T08:38:38;-4.10;99.90
65074;DHT22;52218;51.224;-2.328;2022-12-08T08:42:20;-4.00;99.90
65074;DHT22;52218;51.224;-2.328;2022-12-08T08:46:03;-4.00;99.90
65074;DHT22;52218;51.224;-2.328;2022-12-08T08:49:46;-3.90;99.90
65074;DHT22;52218;51.224;-2.328;2022-12-08T08:53:28;-3.90;99.90
65074;DHT22;52218;51.224;-2.328;2022-12-08T08:57:10;-3.60;99.90
65074;DHT22;52218;51.224;-2.328;2022-12-08T09:00:52;-3.10;99.90
65074;DHT22;52218;51.224;-2.328;2022-12-08T09:04:34;-2.90;99.90
65074;DHT22;52218;51.224;-2.328;2022-12-08T09:08:16;-2.40;99.90
65074;DHT22;52218;51.224;-2.328;2022-12-08T09:11:59;-2.00;99.90
65074;DHT22;52218;51.224;-2.328;2022-12-08T09:15:41;-1.80;99.90
65074;DHT22;52218;51.224;-2.328;2022-12-08T09:19:23;-1.80;99.90
65074;DHT22;52218;51.224;-2.328;2022-12-08T09:23:06;-1.60;99.90
65074;DHT22;52218;51.224;-2.328;2022-12-08T09:26:48;-1.50;99.90
65074;DHT22;52218;51.224;-2.328;2022-12-08T09:30:30;-1.50;99.90
65074;DHT22;52218;51.224;-2.328;2022-12-08T09:34:12;-1.50;99.90
65074;DHT22;52218;51.224;-2.328;2022-12-08T09:37:54;-1.40;99.90
65074;DHT22;52218;51.224;-2.328;2022-12-08T09:41:49;-1.20;99.90
65074;DHT22;52218;51.224;-2.328;2022-12-08T09:45:33;-1.00;99.90
65074;DHT22;52218;51.224;-2.328;2022-12-08T09:49:19;-0.90;99.90
65074;DHT22;52218;51.224;-2.328;2022-12-08T09:53:28;-1.00;99.90
65074;DHT22;52218;51.224;-2.328;2022-12-08T09:57:18;-0.90;99.90
65074;DHT22;52218;51.224;-2.328;2022-12-08T10:01:01;-0.80;99.90
65074;DHT22;52218;51.224;-2.328;2022-12-08T10:04:43;-0.60;99.90
65074;DHT22;52218;51.224;-2.328;2022-12-08T10:08:34;-0.40;99.90
65074;DHT22;52218;51.224;-2.328;2022-12-08T10:12:33;-0.20;99.90
65074;DHT22;52218;51.224;-2.328;2022-12-08T10:16:30;0.00;99.90
65074;DHT22;52218;51.224;-2.328;2022-12-08T10:20:16;0.20;99.90
65074;DHT22;52218;51.224;-2.328;2022-12-08T10:24:04;0.50;99.90
65074;DHT22;52218;51.224;-2.328;2022-12-08T10:27:53;0.80;99.90
65074;DHT22;52218;51.224;-2.328;2022-12-08T10:31:35;1.10;99.90
65074;DHT22;52218;51.224;-2.328;2022-12-08T10:35:22;1.60;99.90
65074;DHT22;52218;51.224;-2.328;2022-12-08T10:39:55;2.00;99.90
65074;DHT22;52218;51.224;-2.328;2022-12-08T10:43:27;2.50;99.90
65074;DHT22;52218;51.224;-2.328;2022-12-08T10:47:12;3.10;99.90
65074;DHT22;52218;51.224;-2.328;2022-12-08T10:50:56;3.60;99.90
65074;DHT22;52218;51.224;-2.328;2022-12-08T10:54:41;3.80;99.90
65074;DHT22;52218;51.224;-2.328;2022-12-08T10:58:39;3.80;99.90
65074;DHT22;52218;51.224;-2.328;2022-12-08T11:02:22;3.70;99.90
65074;DHT22;52218;51.224;-2.328;2022-12-08T11:06:31;3.70;99.90
65074;DHT22;52218;51.224;-2.328;2022-12-08T11:10:19;3.70;99.90
65074;DHT22;52218;51.224;-2.328;2022-12-08T11:14:06;3.60;99.90
65074;DHT22;52218;51.224;-2.328;2022-12-08T11:18:17;3.50;99.90
65074;DHT22;52218;51.224;-2.328;2022-12-08T11:22:01;3.50;99.90
65074;DHT22;52218;51.224;-2.328;2022-12-08T11:25:43;3.80;99.90
65074;DHT22;52218;51.224;-2.328;2022-12-08T11:29:27;3.80;99.90
65074;DHT22;52218;51.224;-2.328;2022-12-08T11:33:21;4.00;99.90
65074;DHT22;52218;51.224;-2.328;2022-12-08T11:37:06;4.30;99.90
65074;DHT22;52218;51.224;-2.328;2022-12-08T11:40:54;4.60;99.90
65074;DHT22;52218;51.224;-2.328;2022-12-08T11:44:52;5.20;99.90
65074;DHT22;52218;51.224;-2.328;2022-12-08T11:52:45;5.80;99.90
65074;DHT22;52218;51.224;-2.328;2022-12-08T11:56:38;6.20;99.90
65074;DHT22;52218;51.224;-2.328;2022-12-08T12:00:21;6.70;99.90
65074;DHT22;52218;51.224;-2.328;2022-12-08T12:16:33;10.80;99.90
65074;DHT22;52218;51.224;-2.328;2022-12-08T12:20:29;11.60;99.90
65074;DHT22;52218;51.224;-2.328;2022-12-08T12:24:18;12.20;99.90
65074;DHT22;52218;51.224;-2.328;2022-12-08T12:28:07;12.70;99.90
65074;DHT22;52218;51.224;-2.328;2022-12-08T12:31:57;13.10;99.70
65074;DHT22;52218;51.224;-2.328;2022-12-08T12:35:43;13.40;99.60
65074;DHT22;52218;51.224;-2.328;2022-12-08T12:39:31;13.70;97.80
65074;DHT22;52218;51.224;-2.328;2022-12-08T12:43:27;13.80;97.70
65074;DHT22;52218;51.224;-2.328;2022-12-08T12:47:11;13.80;97.20
65074;DHT22;52218;51.224;-2.328;2022-12-08T12:50:54;13.80;96.40
65074;DHT22;52218;51.224;-2.328;2022-12-08T12:54:41;13.60;96.30
65074;DHT22;52218;51.224;-2.328;2022-12-08T13:02:37;13.50;96.20
65074;DHT22;52218;51.224;-2.328;2022-12-08T13:06:23;13.40;97.60
65074;DHT22;52218;51.224;-2.328;2022-12-08T13:14:02;13.60;95.90
65074;DHT22;52218;51.224;-2.328;2022-12-08T13:17:46;13.60;95.60
65074;DHT22;52218;51.224;-2.328;2022-12-08T13:21:34;13.70;94.50
65074;DHT22;52218;51.224;-2.328;2022-12-08T13:29:24;13.80;96.10
65074;DHT22;52218;51.224;-2.328;2022-12-08T13:33:18;13.80;94.50
65074;DHT22;52218;51.224;-2.328;2022-12-08T13:37:10;13.80;95.70
65074;DHT22;52218;51.224;-2.328;2022-12-08T13:40:54;13.80;94.50
65074;DHT22;52218;51.224;-2.328;2022-12-08T13:48:56;13.60;93.70
65074;DHT22;52218;51.224;-2.328;2022-12-08T13:53:01;13.60;94.30
65074;DHT22;52218;51.224;-2.328;2022-12-08T13:57:06;13.60;93.60
65074;DHT22;52218;51.224;-2.328;2022-12-08T14:04:48;13.30;94.40
65074;DHT22;52218;51.224;-2.328;2022-12-08T14:08:55;12.70;94.40
65074;DHT22;52218;51.224;-2.328;2022-12-08T14:12:54;11.60;96.10
65074;DHT22;52218;51.224;-2.328;2022-12-08T14:16:47;10.40;98.10
65074;DHT22;52218;51.224;-2.328;2022-12-08T14:20:34;9.50;99.50
65074;DHT22;52218;51.224;-2.328;2022-12-08T14:24:36;8.70;99.90
65074;DHT22;52218;51.224;-2.328;2022-12-08T14:28:19;8.00;99.90
65074;DHT22;52218;51.224;-2.328;2022-12-08T14:32:26;7.50;99.90
65074;DHT22;52218;51.224;-2.328;2022-12-08T14:36:07;7.10;99.90
65074;DHT22;52218;51.224;-2.328;2022-12-08T14:39:51;6.70;99.90
65074;DHT22;52218;51.224;-2.328;2022-12-08T14:43:34;6.50;99.90
65074;DHT22;52218;51.224;-2.328;2022-12-08T14:47:18;6.40;99.90
65074;DHT22;52218;51.224;-2.328;2022-12-08T14:51:28;6.30;99.90
65074;DHT22;52218;51.224;-2.328;2022-12-08T14:55:07;6.20;99.90
65074;DHT22;52218;51.224;-2.328;2022-12-08T14:59:14;6.00;99.90
65074;DHT22;52218;51.224;-2.328;2022-12-08T15:02:58;5.90;99.90
65074;DHT22;52218;51.224;-2.328;2022-12-08T15:07:05;5.80;99.90
65074;DHT22;52218;51.224;-2.328;2022-12-08T15:11:29;5.70;99.90
65074;DHT22;52218;51.224;-2.328;2022-12-08T15:15:15;5.50;99.90
65074;DHT22;52218;51.224;-2.328;2022-12-08T15:22:57;5.20;99.90
65074;DHT22;52218;51.224;-2.328;2022-12-08T15:26:48;5.00;99.90
65074;DHT22;52218;51.224;-2.328;2022-12-08T15:30:30;4.90;99.90
65074;DHT22;52218;51.224;-2.328;2022-12-08T15:34:12;4.70;99.90
65074;DHT22;52218;51.224;-2.328;2022-12-08T15:37:55;4.60;99.90
65074;DHT22;52218;51.224;-2.328;2022-12-08T15:41:37;4.50;99.90
65074;DHT22;52218;51.224;-2.328;2022-12-08T15:45:25;4.40;99.90
65074;DHT22;52218;51.224;-2.328;2022-12-08T15:49:34;4.20;99.90
65074;DHT22;52218;51.224;-2.328;2022-12-08T15:53:16;4.10;99.90
65074;DHT22;52218;51.224;-2.328;2022-12-08T15:56:58;4.00;99.90
65074;DHT22;52218;51.224;-2.328;2022-12-08T16:01:00;3.90;99.90
65074;DHT22;52218;51.224;-2.328;2022-12-08T16:04:43;3.80;99.90
65074;DHT22;52218;51.224;-2.328;2022-12-08T16:08:45;3.70;99.90
65074;DHT22;52218;51.224;-2.328;2022-12-08T16:12:46;3.60;99.90
65074;DHT22;52218;51.224;-2.328;2022-12-08T16:17:13;3.50;99.90
65074;DHT22;52218;51.224;-2.328;2022-12-08T16:20:55;3.40;99.90
65074;DHT22;52218;51.224;-2.328;2022-12-08T16:24:57;3.30;99.90
65074;DHT22;52218;51.224;-2.328;2022-12-08T16:28:58;3.20;99.90
65074;DHT22;52218;51.224;-2.328;2022-12-08T16:32:40;3.20;99.90
65074;DHT22;52218;51.224;-2.328;2022-12-08T16:36:22;3.10;99.90
65074;DHT22;52218;51.224;-2.328;2022-12-08T16:40:05;3.00;99.90
65074;DHT22;52218;51.224;-2.328;2022-12-08T16:43:47;3.00;99.90
65074;DHT22;52218;51.224;-2.328;2022-12-08T16:47:31;2.90;99.90
65074;DHT22;52218;51.224;-2.328;2022-12-08T16:51:15;2.80;99.90
65074;DHT22;52218;51.224;-2.328;2022-12-08T16:55:01;2.70;99.90
65074;DHT22;52218;51.224;-2.328;2022-12-08T16:58:44;2.70;99.90
65074;DHT22;52218;51.224;-2.328;2022-12-08T17:02:27;2.50;99.90
65074;DHT22;52218;51.224;-2.328;2022-12-08T17:06:17;2.50;99.90
65074;DHT22;52218;51.224;-2.328;2022-12-08T17:10:04;2.40;99.90
65074;DHT22;52218;51.224;-2.328;2022-12-08T17:13:47;2.40;99.90
65074;DHT22;52218;51.224;-2.328;2022-12-08T17:17:31;2.30;99.90
65074;DHT22;52218;51.224;-2.328;2022-12-08T17:21:14;2.30;99.90
65074;DHT22;52218;51.224;-2.328;2022-12-08T17:25:00;2.20;99.90
65074;DHT22;52218;51.224;-2.328;2022-12-08T17:28:43;2.20;99.90
65074;DHT22;52218;51.224;-2.328;2022-12-08T17:32:42;2.20;99.90
65074;DHT22;52218;51.224;-2.328;2022-12-08T17:36:24;2.10;99.90
65074;DHT22;52218;51.224;-2.328;2022-12-08T17:40:06;2.10;99.90
65074;DHT22;52218;51.224;-2.328;2022-12-08T17:43:49;2.10;99.90
65074;DHT22;52218;51.224;-2.328;2022-12-08T17:47:31;2.10;99.90
65074;DHT22;52218;51.224;-2.328;2022-12-08T17:51:14;2.00;99.90
65074;DHT22;52218;51.224;-2.328;2022-12-08T17:54:56;2.10;99.90
65074;DHT22;52218;51.224;-2.328;2022-12-08T17:58:38;2.00;99.90
65074;DHT22;52218;51.224;-2.328;2022-12-08T18:02:20;2.00;99.90
65074;DHT22;52218;51.224;-2.328;2022-12-08T18:06:09;1.90;99.90
65074;DHT22;52218;51.224;-2.328;2022-12-08T18:09:51;1.90;99.90
65074;DHT22;52218;51.224;-2.328;2022-12-08T18:13:33;1.90;99.90
65074;DHT22;52218;51.224;-2.328;2022-12-08T18:17:15;1.90;99.90
65074;DHT22;52218;51.224;-2.328;2022-12-08T18:20:57;1.90;99.90
65074;DHT22;52218;51.224;-2.328;2022-12-08T18:24:40;1.80;99.90
65074;DHT22;52218;51.224;-2.328;2022-12-08T18:28:22;1.80;99.90
65074;DHT22;52218;51.224;-2.328;2022-12-08T18:32:05;1.80;99.90
65074;DHT22;52218;51.224;-2.328;2022-12-08T18:35:47;1.70;99.90
65074;DHT22;52218;51.224;-2.328;2022-12-08T18:39:31;1.70;99.90
65074;DHT22;52218;51.224;-2.328;2022-12-08T18:43:13;1.70;99.90
65074;DHT22;52218;51.224;-2.328;2022-12-08T18:46:55;1.70;99.90
65074;DHT22;52218;51.224;-2.328;2022-12-08T18:50:40;1.70;99.90
65074;DHT22;52218;51.224;-2.328;2022-12-08T18:54:23;1.60;99.90
65074;DHT22;52218;51.224;-2.328;2022-12-08T18:58:25;1.60;99.90
65074;DHT22;52218;51.224;-2.328;2022-12-08T19:02:10;1.60;99.90
65074;DHT22;52218;51.224;-2.328;2022-12-08T19:06:03;1.60;99.90
65074;DHT22;52218;51.224;-2.328;2022-12-08T19:09:45;1.50;99.90
65074;DHT22;52218;51.224;-2.328;2022-12-08T19:13:27;1.50;99.90
65074;DHT22;52218;51.224;-2.328;2022-12-08T19:17:09;1.40;99.90
65074;DHT22;52218;51.224;-2.328;2022-12-08T19:20:51;1.40;99.90
65074;DHT22;52218;51.224;-2.328;2022-12-08T19:24:37;1.30;99.90
65074;DHT22;52218;51.224;-2.328;2022-12-08T19:28:19;1.20;99.90
65074;DHT22;52218;51.224;-2.328;2022-12-08T19:32:01;1.10;99.90
65074;DHT22;52218;51.224;-2.328;2022-12-08T19:35:45;1.00;99.90
65074;DHT22;52218;51.224;-2.328;2022-12-08T19:39:33;0.80;99.90
65074;DHT22;52218;51.224;-2.328;2022-12-08T19:43:34;0.70;99.90
65074;DHT22;52218;51.224;-2.328;2022-12-08T19:47:34;0.50;99.90
65074;DHT22;52218;51.224;-2.328;2022-12-08T19:51:16;0.40;99.90
65074;DHT22;52218;51.224;-2.328;2022-12-08T19:54:58;0.20;99.90
65074;DHT22;52218;51.224;-2.328;2022-12-08T19:58:41;0.10;99.90
65074;DHT22;52218;51.224;-2.328;2022-12-08T20:02:23;0.00;99.90
65074;DHT22;52218;51.224;-2.328;2022-12-08T20:06:05;-0.10;99.90
65074;DHT22;52218;51.224;-2.328;2022-12-08T20:09:47;-0.20;99.90
65074;DHT22;52218;51.224;-2.328;2022-12-08T20:13:29;-0.30;99.90
65074;DHT22;52218;51.224;-2.328;2022-12-08T20:17:26;-0.40;99.90
65074;DHT22;52218;51.224;-2.328;2022-12-08T20:21:09;-0.50;99.90
65074;DHT22;52218;51.224;-2.328;2022-12-08T20:24:52;-0.60;99.90
65074;DHT22;52218;51.224;-2.328;2022-12-08T20:28:41;-0.70;99.90
65074;DHT22;52218;51.224;-2.328;2022-12-08T20:32:23;-0.80;99.90
65074;DHT22;52218;51.224;-2.328;2022-12-08T20:36:06;-0.80;99.90
65074;DHT22;52218;51.224;-2.328;2022-12-08T20:39:48;-0.90;99.90
65074;DHT22;52218;51.224;-2.328;2022-12-08T20:43:30;-1.00;99.90
65074;DHT22;52218;51.224;-2.328;2022-12-08T20:47:13;-1.10;99.90
65074;DHT22;52218;51.224;-2.328;2022-12-08T20:50:55;-1.10;99.90
65074;DHT22;52218;51.224;-2.328;2022-12-08T20:54:37;-1.20;99.90
65074;DHT22;52218;51.224;-2.328;2022-12-08T20:58:19;-1.30;99.90
65074;DHT22;52218;51.224;-2.328;2022-12-08T21:02:01;-1.30;99.90
65074;DHT22;52218;51.224;-2.328;2022-12-08T21:05:50;-1.30;99.90
65074;DHT22;52218;51.224;-2.328;2022-12-08T21:09:34;-1.40;99.90
65074;DHT22;52218;51.224;-2.328;2022-12-08T21:13:16;-1.40;99.90
65074;DHT22;52218;51.224;-2.328;2022-12-08T21:16:58;-1.40;99.90
65074;DHT22;52218;51.224;-2.328;2022-12-08T21:20:41;-1.50;99.90
65074;DHT22;52218;51.224;-2.328;2022-12-08T21:24:23;-1.50;99.90
65074;DHT22;52218;51.224;-2.328;2022-12-08T21:28:14;-1.50;99.90
65074;DHT22;52218;51.224;-2.328;2022-12-08T21:31:56;-1.50;99.90
65074;DHT22;52218;51.224;-2.328;2022-12-08T21:35:41;-1.60;99.90
65074;DHT22;52218;51.224;-2.328;2022-12-08T21:39:23;-1.60;99.90
65074;DHT22;52218;51.224;-2.328;2022-12-08T21:43:05;-1.70;99.90
65074;DHT22;52218;51.224;-2.328;2022-12-08T21:46:47;-1.80;99.90
65074;DHT22;52218;51.224;-2.328;2022-12-08T21:50:30;-1.80;99.90
65074;DHT22;52218;51.224;-2.328;2022-12-08T21:54:12;-1.90;99.90
65074;DHT22;52218;51.224;-2.328;2022-12-08T21:57:59;-1.90;99.90
65074;DHT22;52218;51.224;-2.328;2022-12-08T22:01:42;-1.90;99.90
65074;DHT22;52218;51.224;-2.328;2022-12-08T22:05:25;-1.90;99.90
65074;DHT22;52218;51.224;-2.328;2022-12-08T22:09:07;-1.90;99.90
65074;DHT22;52218;51.224;-2.328;2022-12-08T22:12:52;-1.90;99.90
65074;DHT22;52218;51.224;-2.328;2022-12-08T22:16:34;-1.90;99.90
65074;DHT22;52218;51.224;-2.328;2022-12-08T22:20:17;-1.90;99.90
65074;DHT22;52218;51.224;-2.328;2022-12-08T22:23:59;-1.90;99.90
65074;DHT22;52218;51.224;-2.328;2022-12-08T22:27:42;-1.90;99.90
65074;DHT22;52218;51.224;-2.328;2022-12-08T22:31:24;-1.90;99.90
65074;DHT22;52218;51.224;-2.328;2022-12-08T22:35:07;-1.90;99.90
65074;DHT22;52218;51.224;-2.328;2022-12-08T22:38:50;-1.90;99.90
65074;DHT22;52218;51.224;-2.328;2022-12-08T22:42:32;-2.00;99.90
65074;DHT22;52218;51.224;-2.328;2022-12-08T22:46:21;-2.00;99.90
65074;DHT22;52218;51.224;-2.328;2022-12-08T22:50:04;-2.00;99.90
65074;DHT22;52218;51.224;-2.328;2022-12-08T22:53:47;-2.10;99.90
65074;DHT22;52218;51.224;-2.328;2022-12-08T22:57:30;-2.10;99.90
65074;DHT22;52218;51.224;-2.328;2022-12-08T23:01:27;-2.10;99.90
65074;DHT22;52218;51.224;-2.328;2022-12-08T23:05:10;-2.20;99.90
65074;DHT22;52218;51.224;-2.328;2022-12-08T23:08:53;-2.20;99.90
65074;DHT22;52218;51.224;-2.328;2022-12-08T23:12:36;-2.30;99.90
65074;DHT22;52218;51.224;-2.328;2022-12-08T23:16:18;-2.30;99.90
65074;DHT22;52218;51.224;-2.328;2022-12-08T23:20:00;-2.40;99.90
65074;DHT22;52218;51.224;-2.328;2022-12-08T23:23:43;-2.40;99.90
65074;DHT22;52218;51.224;-2.328;2022-12-08T23:27:25;-2.40;99.90
65074;DHT22;52218;51.224;-2.328;2022-12-08T23:31:08;-2.50;99.90
65074;DHT22;52218;51.224;-2.328;2022-12-08T23:34:51;-2.50;99.90
65074;DHT22;52218;51.224;-2.328;2022-12-08T23:38:33;-2.50;99.90
65074;DHT22;52218;51.224;-2.328;2022-12-08T23:42:15;-2.60;99.90
65074;DHT22;52218;51.224;-2.328;2022-12-08T23:45:58;-2.60;99.90
65074;DHT22;52218;51.224;-2.328;2022-12-08T23:49:40;-2.70;99.90
65074;DHT22;52218;51.224;-2.328;2022-12-08T23:53:22;-2.70;99.90
65074;DHT22;52218;51.224;-2.328;2022-12-08T23:57:04;-2.80;99.90
